createdAt,value
2023-04-29T00:00:18.722Z,41.05
2023-04-29T00:03:09.513Z,41.12
2023-04-29T00:05:40.689Z,41.23
2023-04-29T00:08:11.884Z,40.98
2023-04-29T00:10:42.542Z,41.18
2023-04-29T00:13:13.716Z,41.14
2023-04-29T00:15:44.834Z,41.13
2023-04-29T00:18:15.487Z,41.36
2023-04-29T00:20:46.142Z,41.32
2023-04-29T00:23:16.843Z,41.37
2023-04-29T00:25:47.490Z,41.35
2023-04-29T00:28:18.256Z,41.23
2023-04-29T00:30:48.867Z,41.36
2023-04-29T00:33:19.557Z,41.50
2023-04-29T00:35:50.218Z,41.55
2023-04-29T00:38:21.291Z,41.54
2023-04-29T00:40:52.413Z,41.49
2023-04-29T00:43:23.088Z,41.60
2023-04-29T00:45:54.411Z,41.44
2023-04-29T00:48:25.026Z,41.70
2023-04-29T00:50:56.758Z,41.58
2023-04-29T00:53:27.475Z,41.48
2023-04-29T00:55:58.448Z,41.71
2023-04-29T00:58:33.527Z,41.74
2023-04-29T01:01:04.883Z,41.72
2023-04-29T01:03:35.811Z,41.79
2023-04-29T01:06:10.412Z,41.77
2023-04-29T01:08:45.688Z,41.90
2023-04-29T01:11:17.964Z,42.04
2023-04-29T01:13:51.532Z,42.02
2023-04-29T01:16:24.626Z,41.98
2023-04-29T01:18:58.970Z,41.94
2023-04-29T01:21:46.462Z,42.07
2023-04-29T01:24:17.207Z,41.89
2023-04-29T01:26:57.240Z,41.89
2023-04-29T01:29:53.067Z,42.13
2023-04-29T01:32:29.275Z,41.99
2023-04-29T01:35:05.085Z,42.13
2023-04-29T01:37:40.135Z,42.22
2023-04-29T01:40:17.172Z,42.15
2023-04-29T01:43:03.547Z,42.20
2023-04-29T01:45:37.958Z,42.09
2023-04-29T01:48:09.331Z,42.16
2023-04-29T01:50:40.349Z,42.13
2023-04-29T01:53:18.732Z,42.27
2023-04-29T01:55:50.142Z,42.38
2023-04-29T01:58:30.776Z,42.13
2023-04-29T02:01:28.178Z,42.36
2023-04-29T02:03:59.013Z,42.35
2023-04-29T02:06:32.194Z,42.27
2023-04-29T02:09:04.600Z,42.56
2023-04-29T02:11:35.772Z,42.70
2023-04-29T02:14:06.684Z,42.64
2023-04-29T02:16:37.576Z,42.45
2023-04-29T02:19:10.064Z,42.47
2023-04-29T02:21:42.375Z,42.71
2023-04-29T02:24:13.038Z,42.53
2023-04-29T02:26:43.699Z,42.58
2023-04-29T02:29:14.292Z,42.72
2023-04-29T02:31:46.701Z,42.68
2023-04-29T02:34:17.351Z,42.68
2023-04-29T02:36:47.906Z,42.79
2023-04-29T02:39:18.707Z,42.51
2023-04-29T02:41:49.433Z,42.68
2023-04-29T02:44:20.030Z,42.74
2023-04-29T02:46:50.674Z,42.93
2023-04-29T02:49:21.527Z,42.81
2023-04-29T02:51:52.169Z,42.75
2023-04-29T02:54:22.838Z,42.67
2023-04-29T02:56:53.431Z,42.72
2023-04-29T02:59:24.025Z,42.92
2023-04-29T03:01:55.308Z,42.93
2023-04-29T03:04:25.981Z,43.22
2023-04-29T03:06:57.591Z,43.09
2023-04-29T03:09:30.883Z,43.07
2023-04-29T03:12:02.979Z,43.11
2023-04-29T03:14:34.168Z,43.13
2023-04-29T03:17:05.450Z,43.18
2023-04-29T03:19:36.352Z,43.06
2023-04-29T03:22:08.383Z,43.18
2023-04-29T03:24:39.811Z,43.13
2023-04-29T03:27:11.297Z,43.16
2023-04-29T03:29:41.961Z,43.33
2023-04-29T03:32:12.657Z,43.08
2023-04-29T03:34:43.368Z,43.31
2023-04-29T03:37:24.738Z,43.49
2023-04-29T03:40:00.479Z,43.40
2023-04-29T03:42:31.307Z,43.38
2023-04-29T03:45:02.085Z,43.49
2023-04-29T03:47:33.705Z,43.45
2023-04-29T03:50:04.602Z,43.43
2023-04-29T03:52:36.492Z,43.43
2023-04-29T03:55:12.775Z,43.52
2023-04-29T03:57:43.861Z,43.68
2023-04-29T04:00:15.520Z,43.47
2023-04-29T04:02:50.448Z,43.41
2023-04-29T04:05:21.561Z,43.62
2023-04-29T04:07:56.618Z,43.70
2023-04-29T04:10:45.558Z,43.77
2023-04-29T04:13:34.785Z,43.60
2023-04-29T04:16:06.293Z,43.83
2023-04-29T04:18:36.922Z,43.78
2023-04-29T04:21:08.354Z,43.72
2023-04-29T04:23:40.670Z,43.85
2023-04-29T04:26:12.031Z,44.15
2023-04-29T04:28:51.411Z,43.94
2023-04-29T04:31:30.002Z,43.97
2023-04-29T04:34:00.970Z,44.10
2023-04-29T04:36:32.772Z,44.02
2023-04-29T04:39:04.520Z,43.91
2023-04-29T04:41:35.783Z,44.13
2023-04-29T04:44:06.656Z,44.03
2023-04-29T04:46:50.643Z,44.07
2023-04-29T04:49:32.223Z,44.17
2023-04-29T04:52:04.170Z,44.22
2023-04-29T04:54:36.322Z,44.35
2023-04-29T04:57:19.785Z,44.33
2023-04-29T04:59:52.613Z,44.47
2023-04-29T05:02:23.599Z,44.38
2023-04-29T05:04:54.821Z,44.50
2023-04-29T05:07:25.883Z,44.35
2023-04-29T05:10:08.755Z,44.15
2023-04-29T05:12:45.167Z,44.49
2023-04-29T05:15:16.942Z,44.51
2023-04-29T05:17:48.124Z,44.62
2023-04-29T05:20:18.824Z,44.61
2023-04-29T05:22:49.547Z,44.54
2023-04-29T05:25:20.465Z,44.58
2023-04-29T05:27:51.586Z,44.58
2023-04-29T05:30:23.157Z,44.39
2023-04-29T05:32:54.052Z,44.58
2023-04-29T05:35:25.531Z,44.52
2023-04-29T05:37:56.079Z,44.56
2023-04-29T05:40:50.790Z,44.50
2023-04-29T05:43:36.963Z,44.55
2023-04-29T05:46:08.184Z,44.64
2023-04-29T05:48:39.036Z,44.89
2023-04-29T05:51:09.819Z,44.78
2023-04-29T05:53:41.157Z,44.74
2023-04-29T05:56:12.025Z,44.87
2023-04-29T05:58:45.006Z,44.67
2023-04-29T06:01:17.449Z,44.56
2023-04-29T06:03:50.031Z,44.66
2023-04-29T06:06:45.869Z,44.63
2023-04-29T06:09:27.448Z,45.08
2023-04-29T06:11:59.961Z,44.90
2023-04-29T06:14:30.564Z,44.88
2023-04-29T06:17:02.326Z,45.14
2023-04-29T06:19:34.143Z,44.99
2023-04-29T06:22:04.778Z,44.90
2023-04-29T06:24:36.222Z,45.16
2023-04-29T06:27:08.111Z,45.07
2023-04-29T06:29:38.920Z,45.21
2023-04-29T06:32:09.786Z,45.22
2023-04-29T06:34:40.877Z,45.06
2023-04-29T06:37:27.787Z,45.29
2023-04-29T06:40:17.347Z,45.27
2023-04-29T06:43:06.287Z,45.26
2023-04-29T06:45:57.058Z,45.34
2023-04-29T06:48:38.788Z,45.56
2023-04-29T06:51:09.476Z,45.30
2023-04-29T06:53:41.637Z,45.08
2023-04-29T06:56:12.751Z,45.14
2023-04-29T06:58:43.827Z,45.49
2023-04-29T07:01:14.493Z,45.28
2023-04-29T07:03:47.250Z,45.49
2023-04-29T07:06:18.146Z,45.37
2023-04-29T07:08:48.934Z,45.40
2023-04-29T07:11:19.581Z,45.58
2023-04-29T07:13:50.271Z,45.41
2023-04-29T07:19:24.210Z,45.45
2023-04-29T07:21:54.811Z,45.51
2023-04-29T07:24:26.664Z,45.70
2023-04-29T07:26:57.415Z,45.69
2023-04-29T07:29:27.922Z,45.67
2023-04-29T07:31:58.429Z,45.75
2023-04-29T07:34:29.011Z,45.65
2023-04-29T07:36:59.600Z,45.70
2023-04-29T07:39:30.784Z,45.71
2023-04-29T07:42:03.225Z,45.84
2023-04-29T07:44:34.889Z,45.89
2023-04-29T07:47:07.117Z,45.72
2023-04-29T07:49:38.531Z,45.92
2023-04-29T07:52:10.169Z,45.88
2023-04-29T07:54:40.725Z,46.01
2023-04-29T07:57:11.703Z,46.01
2023-04-29T07:59:42.618Z,45.97
2023-04-29T08:02:13.982Z,45.85
2023-04-29T08:04:44.890Z,45.85
2023-04-29T08:07:16.712Z,45.80
2023-04-29T08:09:47.264Z,45.86
2023-04-29T08:12:18.099Z,46.07
2023-04-29T08:14:48.629Z,45.90
2023-04-29T08:17:19.079Z,45.86
2023-04-29T08:19:49.744Z,45.92
2023-04-29T08:22:21.378Z,46.00
2023-04-29T08:24:52.462Z,45.93
2023-04-29T08:27:23.256Z,45.82
2023-04-29T08:29:53.806Z,45.82
2023-04-29T08:32:24.424Z,45.87
2023-04-29T08:34:55.258Z,45.84
2023-04-29T08:37:26.136Z,45.90
2023-04-29T08:39:56.649Z,45.75
2023-04-29T08:42:33.580Z,45.66
2023-04-29T08:45:04.889Z,45.71
2023-04-29T08:47:35.581Z,45.80
2023-04-29T08:50:07.152Z,45.80
2023-04-29T08:52:37.681Z,45.88
2023-04-29T08:55:09.546Z,45.74
2023-04-29T08:57:40.744Z,45.79
2023-04-29T09:00:11.960Z,45.78
2023-04-29T09:02:46.307Z,45.69
2023-04-29T09:05:17.279Z,45.77
2023-04-29T09:07:48.122Z,45.69
2023-04-29T09:10:19.504Z,45.79
2023-04-29T09:12:50.043Z,45.83
2023-04-29T09:15:20.605Z,45.88
2023-04-29T09:17:51.077Z,45.99
2023-04-29T09:20:41.405Z,45.92
2023-04-29T09:23:11.972Z,45.79
2023-04-29T09:25:42.582Z,45.88
2023-04-29T09:28:17.756Z,45.84
2023-04-29T09:30:48.488Z,45.70
2023-04-29T09:33:18.989Z,45.73
2023-04-29T09:35:49.486Z,45.74
2023-04-29T09:38:21.105Z,45.88
2023-04-29T09:40:59.612Z,45.79
2023-04-29T09:43:30.854Z,45.80
2023-04-29T09:46:01.494Z,45.86
2023-04-29T09:48:35.604Z,45.86
2023-04-29T09:51:06.350Z,45.73
2023-04-29T09:53:38.340Z,45.77
2023-04-29T09:56:09.454Z,45.80
2023-04-29T09:58:40.554Z,45.77
2023-04-29T10:01:13.561Z,45.76
2023-04-29T10:03:45.161Z,45.72
2023-04-29T10:06:18.190Z,45.70
2023-04-29T10:08:49.396Z,45.74
2023-04-29T10:11:20.132Z,45.57
2023-04-29T10:13:52.916Z,45.60
2023-04-29T10:16:29.485Z,45.68
2023-04-29T10:19:01.462Z,45.69
2023-04-29T10:21:32.511Z,45.77
2023-04-29T10:24:03.548Z,45.82
2023-04-29T10:26:37.258Z,45.66
2023-04-29T10:29:10.412Z,45.68
2023-04-29T10:31:41.319Z,45.59
2023-04-29T10:34:12.995Z,45.54
2023-04-29T10:36:43.728Z,45.40
2023-04-29T10:39:21.220Z,45.19
2023-04-29T10:41:52.294Z,45.20
2023-04-29T10:44:24.189Z,44.84
2023-04-29T10:47:08.254Z,45.25
2023-04-29T10:49:38.848Z,45.12
2023-04-29T10:52:09.408Z,45.28
2023-04-29T10:54:40.796Z,45.15
2023-04-29T10:57:21.564Z,45.21
2023-04-29T10:59:54.937Z,45.14
2023-04-29T11:02:25.540Z,45.13
2023-04-29T11:05:13.136Z,45.23
2023-04-29T11:07:44.527Z,45.13
2023-04-29T11:10:15.644Z,45.21
2023-04-29T11:12:46.262Z,44.96
2023-04-29T11:15:19.177Z,45.10
2023-04-29T11:17:49.754Z,45.26
2023-04-29T11:20:20.216Z,44.98
2023-04-29T11:22:53.444Z,45.21
2023-04-29T11:25:28.546Z,44.79
2023-04-29T11:27:59.792Z,44.56
2023-04-29T11:30:31.518Z,44.38
2023-04-29T11:33:02.300Z,44.17
2023-04-29T11:35:32.945Z,43.91
2023-04-29T11:38:04.218Z,44.59
2023-04-29T11:40:34.941Z,43.98
2023-04-29T11:43:07.309Z,43.82
2023-04-29T11:45:37.934Z,44.21
2023-04-29T11:48:08.593Z,43.90
2023-04-29T11:50:39.150Z,43.06
2023-04-29T11:53:09.732Z,43.63
2023-04-29T11:55:40.857Z,43.38
2023-04-29T11:58:11.444Z,43.52
2023-04-29T12:00:42.127Z,43.77
2023-04-29T12:03:16.749Z,43.37
2023-04-29T12:05:49.525Z,43.84
2023-04-29T12:08:22.297Z,43.46
2023-04-29T12:10:53.615Z,43.68
2023-04-29T12:13:24.987Z,43.28
2023-04-29T12:15:55.902Z,43.61
2023-04-29T12:18:27.840Z,43.71
2023-04-29T12:20:58.579Z,43.69
2023-04-29T12:23:29.864Z,43.65
2023-04-29T12:26:01.031Z,43.70
2023-04-29T12:28:31.875Z,44.00
2023-04-29T12:31:02.946Z,43.80
2023-04-29T12:33:33.513Z,43.75
2023-04-29T12:36:04.216Z,43.55
2023-04-29T12:38:35.072Z,43.64
2023-04-29T12:41:07.891Z,43.49
2023-04-29T12:43:38.579Z,43.83
2023-04-29T12:46:09.732Z,43.79
2023-04-29T12:48:42.002Z,43.80
2023-04-29T12:51:13.293Z,43.86
2023-04-29T12:53:43.857Z,43.68
2023-04-29T12:56:14.483Z,43.70
2023-04-29T12:58:45.081Z,43.75
2023-04-29T13:01:18.436Z,43.81
2023-04-29T13:03:49.894Z,43.68
2023-04-29T13:06:20.559Z,43.79
2023-04-29T13:08:51.622Z,43.54
2023-04-29T13:11:22.171Z,43.46
2023-04-29T13:13:52.815Z,43.53
2023-04-29T13:16:25.276Z,43.42
2023-04-29T13:19:08.586Z,43.48
2023-04-29T13:21:48.609Z,43.45
2023-04-29T13:24:20.403Z,43.53
2023-04-29T13:26:52.778Z,43.63
2023-04-29T13:29:24.170Z,43.44
2023-04-29T13:31:54.795Z,43.48
2023-04-29T13:34:25.325Z,43.54
2023-04-29T13:36:55.846Z,43.10
2023-04-29T13:39:27.053Z,43.34
2023-04-29T13:41:59.299Z,43.38
2023-04-29T13:44:35.999Z,43.46
2023-04-29T13:47:18.111Z,43.34
2023-04-29T13:55:50.026Z,43.52
2023-04-29T14:03:02.205Z,43.37
2023-04-29T14:05:33.482Z,43.50
2023-04-29T14:08:04.351Z,43.63
2023-04-29T14:10:34.704Z,43.54
2023-04-29T14:13:05.469Z,43.64
2023-04-29T14:15:36.086Z,43.58
2023-04-29T14:18:08.526Z,43.64
2023-04-29T14:20:39.413Z,43.72
2023-04-29T14:23:09.944Z,43.80
2023-04-29T14:25:40.483Z,43.80
2023-04-29T14:28:11.529Z,43.75
2023-04-29T14:30:46.233Z,43.81
2023-04-29T14:33:17.483Z,43.72
2023-04-29T14:35:48.005Z,43.84
2023-04-29T14:38:18.972Z,43.93
2023-04-29T14:40:49.533Z,43.98
2023-04-29T14:43:20.177Z,44.04
2023-04-29T14:45:51.301Z,44.03
2023-04-29T14:48:22.084Z,44.06
2023-04-29T14:50:52.645Z,44.05
2023-04-29T14:53:23.281Z,44.10
2023-04-29T14:55:54.021Z,44.22
2023-04-29T14:58:24.548Z,44.32
2023-04-29T15:00:55.151Z,44.29
2023-04-29T15:03:26.006Z,44.29
2023-04-29T15:05:58.155Z,44.52
2023-04-29T15:08:28.716Z,44.61
2023-04-29T15:10:59.349Z,44.57
2023-04-29T15:13:33.130Z,44.45
2023-04-29T15:16:05.286Z,44.52
2023-04-29T15:18:36.644Z,44.48
2023-04-29T15:21:07.805Z,44.81
2023-04-29T15:23:39.485Z,44.68
2023-04-29T15:26:10.632Z,44.69
2023-04-29T15:28:41.144Z,44.92
2023-04-29T15:31:11.961Z,44.91
2023-04-29T15:33:42.793Z,45.07
2023-04-29T15:36:13.424Z,45.02
2023-04-29T15:38:43.951Z,45.07
2023-04-29T15:41:14.542Z,45.06
2023-04-29T15:43:45.109Z,45.10
2023-04-29T15:46:15.796Z,45.19
2023-04-29T15:48:46.869Z,45.11
2023-04-29T15:51:17.457Z,45.14
2023-04-29T15:53:49.120Z,45.22
2023-04-29T15:56:19.605Z,45.33
2023-04-29T15:58:50.260Z,45.27
2023-04-29T16:01:21.371Z,45.27
2023-04-29T16:03:52.028Z,45.41
2023-04-29T16:06:22.919Z,45.30
2023-04-29T16:08:53.508Z,45.23
2023-04-29T16:11:24.036Z,45.13
2023-04-29T16:13:54.782Z,45.18
2023-04-29T16:16:25.758Z,45.25
2023-04-29T16:18:56.280Z,45.39
2023-04-29T16:21:27.742Z,45.44
2023-04-29T16:23:58.282Z,45.31
2023-04-29T16:26:28.987Z,45.37
2023-04-29T16:28:59.930Z,45.50
2023-04-29T16:31:30.603Z,45.62
2023-04-29T16:34:01.307Z,45.53
2023-04-29T16:36:32.759Z,45.55
2023-04-29T16:39:04.689Z,45.66
2023-04-29T16:41:35.410Z,45.70
2023-04-29T16:44:06.123Z,45.74
2023-04-29T16:46:36.854Z,45.79
2023-04-29T16:49:07.640Z,45.89
2023-04-29T16:51:38.266Z,45.95
2023-04-29T16:54:09.248Z,46.32
2023-04-29T16:56:39.792Z,46.01
2023-04-29T16:59:11.354Z,45.79
2023-04-29T17:01:42.177Z,46.04
2023-04-29T17:04:12.918Z,45.91
2023-04-29T17:06:43.737Z,45.93
2023-04-29T17:09:15.843Z,45.92
2023-04-29T17:11:46.319Z,45.95
2023-04-29T17:14:17.475Z,46.01
2023-04-29T17:16:48.071Z,45.92
2023-04-29T17:19:18.635Z,45.94
2023-04-29T17:21:50.571Z,46.10
2023-04-29T17:24:21.052Z,46.34
2023-04-29T17:26:51.629Z,46.31
2023-04-29T17:29:22.233Z,46.49
2023-04-29T17:31:59.803Z,46.37
2023-04-29T17:34:31.274Z,46.71
2023-04-29T17:37:01.879Z,46.79
2023-04-29T17:39:32.384Z,46.79
2023-04-29T17:42:02.961Z,46.81
2023-04-29T17:44:33.495Z,46.89
2023-04-29T17:47:04.126Z,46.82
2023-04-29T17:49:34.811Z,46.89
2023-04-29T17:52:05.615Z,46.87
2023-04-29T17:54:36.155Z,47.12
2023-04-29T17:57:06.871Z,47.15
2023-04-29T17:59:37.426Z,47.02
2023-04-29T18:02:08.078Z,47.09
2023-04-29T18:04:40.662Z,47.12
2023-04-29T18:07:11.490Z,47.23
2023-04-29T18:09:42.100Z,47.20
2023-04-29T18:12:12.700Z,47.28
2023-04-29T18:14:43.226Z,47.27
2023-04-29T18:17:13.654Z,47.29
2023-04-29T18:19:47.152Z,47.37
2023-04-29T18:22:17.839Z,47.37
2023-04-29T18:24:49.445Z,47.45
2023-04-29T18:27:19.957Z,47.47
2023-04-29T18:29:50.805Z,47.60
2023-04-29T18:32:21.404Z,47.66
2023-04-29T18:34:53.040Z,47.63
2023-04-29T18:37:23.631Z,47.82
2023-04-29T18:39:54.391Z,47.69
2023-04-29T18:42:25.463Z,47.82
2023-04-29T18:44:55.966Z,47.89
2023-04-29T18:47:26.510Z,48.04
2023-04-29T18:49:57.308Z,48.00
2023-04-29T18:52:28.085Z,48.23
2023-04-29T18:54:58.654Z,48.26
2023-04-29T18:57:29.241Z,48.14
2023-04-29T18:59:59.850Z,48.20
2023-04-29T19:02:30.737Z,48.30
2023-04-29T19:05:06.014Z,48.27
2023-04-29T19:07:36.676Z,48.30
2023-04-29T19:10:07.972Z,48.23
2023-04-29T19:12:38.741Z,48.40
2023-04-29T19:15:11.812Z,48.37
2023-04-29T19:17:42.270Z,48.44
2023-04-29T19:20:14.832Z,48.44
2023-04-29T19:22:45.427Z,48.46
2023-04-29T19:25:16.069Z,48.50
2023-04-29T19:27:48.955Z,48.55
2023-04-29T19:30:19.841Z,48.56
2023-04-29T19:32:50.862Z,48.66
2023-04-29T19:35:21.459Z,48.67
2023-04-29T19:37:54.808Z,48.72
2023-04-29T19:40:25.503Z,48.82
2023-04-29T19:42:56.302Z,48.79
2023-04-29T19:45:27.512Z,48.87
2023-04-29T19:48:02.061Z,48.92
2023-04-29T19:50:33.091Z,48.84
2023-04-29T19:53:03.826Z,48.95
2023-04-29T19:55:34.772Z,49.13
2023-04-29T19:58:05.384Z,49.18
2023-04-29T20:00:36.458Z,49.11
2023-04-29T20:03:07.341Z,49.16
2023-04-29T20:05:38.077Z,49.18
2023-04-29T20:08:08.871Z,49.11
2023-04-29T20:10:39.497Z,49.21
2023-04-29T20:13:10.121Z,49.24
2023-04-29T20:15:40.705Z,49.31
2023-04-29T20:18:11.450Z,49.51
2023-04-29T20:20:42.103Z,49.38
2023-04-29T20:23:13.155Z,49.68
2023-04-29T20:25:43.705Z,49.68
2023-04-29T20:28:14.345Z,49.70
2023-04-29T20:30:45.234Z,49.81
2023-04-29T20:33:16.175Z,49.97
2023-04-29T20:35:46.837Z,50.26
2023-04-29T20:38:17.490Z,50.10
2023-04-29T20:40:47.985Z,50.20
2023-04-29T20:43:18.544Z,50.28
2023-04-29T20:45:49.162Z,50.37
2023-04-29T20:48:20.076Z,50.48
2023-04-29T20:50:50.888Z,50.41
2023-04-29T20:53:22.120Z,50.39
2023-04-29T20:55:52.875Z,50.78
2023-04-29T20:58:23.482Z,50.64
2023-04-29T21:00:54.142Z,50.61
2023-04-29T21:03:26.126Z,50.54
2023-04-29T21:05:57.303Z,50.60
2023-04-29T21:08:27.943Z,50.94
2023-04-29T21:10:58.781Z,50.73
2023-04-29T21:13:29.456Z,50.88
2023-04-29T21:16:00.217Z,51.31
2023-04-29T21:18:30.807Z,51.15
2023-04-29T21:21:01.510Z,51.13
2023-04-29T21:23:32.246Z,51.32
2023-04-29T21:26:02.757Z,51.24
2023-04-29T21:28:33.419Z,51.13
2023-04-29T21:31:04.159Z,51.36
2023-04-29T21:33:34.747Z,51.65
2023-04-29T21:36:06.014Z,51.61
2023-04-29T21:38:36.529Z,51.57
2023-04-29T21:41:10.042Z,51.88
2023-04-29T21:43:40.756Z,51.97
2023-04-29T21:46:11.321Z,51.97
2023-04-29T21:48:41.917Z,52.12
2023-04-29T21:51:12.419Z,52.17
2023-04-29T21:53:42.995Z,52.07
2023-04-29T21:56:13.472Z,52.24
2023-04-29T21:58:44.000Z,52.11
2023-04-29T22:01:27.608Z,52.34
2023-04-29T22:03:58.687Z,52.33
2023-04-29T22:06:29.428Z,52.61
2023-04-29T22:09:00.019Z,52.52
2023-04-29T22:11:30.751Z,52.59
2023-04-29T22:14:01.327Z,52.81
2023-04-29T22:16:31.904Z,52.76
2023-04-29T22:19:02.576Z,52.93
2023-04-29T22:21:33.675Z,52.86
2023-04-29T22:24:04.448Z,53.08
2023-04-29T22:26:34.983Z,52.99
2023-04-29T22:29:05.674Z,53.03
2023-04-29T22:31:36.353Z,53.11
2023-04-29T22:34:07.083Z,53.22
2023-04-29T22:36:39.860Z,53.31
2023-04-29T22:39:10.880Z,53.41
2023-04-29T22:41:41.413Z,53.38
2023-04-29T22:44:11.985Z,53.75
2023-04-29T22:46:42.503Z,53.82
2023-04-29T22:49:13.620Z,53.84
2023-04-29T22:51:44.109Z,53.72
2023-04-29T22:54:14.829Z,53.77
2023-04-29T22:56:45.498Z,54.08
2023-04-29T22:59:16.123Z,54.17
2023-04-29T23:01:46.711Z,54.03
2023-04-29T23:04:17.427Z,54.40
2023-04-29T23:06:48.116Z,54.56
2023-04-29T23:09:19.149Z,54.23
2023-04-29T23:11:49.678Z,54.05
2023-04-29T23:14:21.658Z,54.38
2023-04-29T23:16:52.173Z,54.54
2023-04-29T23:19:23.080Z,54.54
2023-04-29T23:21:53.684Z,54.49
2023-04-29T23:24:24.299Z,54.44
2023-04-29T23:26:54.824Z,54.82
2023-04-29T23:29:25.391Z,55.02
2023-04-29T23:31:55.923Z,55.24
2023-04-29T23:34:26.475Z,54.71
2023-04-29T23:36:57.445Z,54.38
2023-04-29T23:39:28.180Z,55.02
2023-04-29T23:41:58.717Z,54.67
2023-04-29T23:44:29.275Z,54.72
2023-04-29T23:46:59.784Z,54.74
2023-04-29T23:49:30.323Z,54.85
2023-04-29T23:52:01.470Z,54.76
2023-04-29T23:54:32.030Z,54.87
2023-04-29T23:57:02.731Z,54.88
2023-04-29T23:59:33.313Z,54.97
